Time;durP1;ratioP1;P1;durP2;ratioP2;P2;SDS_P1;SDS_P2;PMS_P1;PMS_P2;Temp;Humidity;BMP_temperature;BMP_pressure;BME280_temperature;BME280_humidity;BME280_pressure;Samples;Min_cycle;Max_cycle;Signal;HPM_P1;HPM_P2
2023/06/08 00:01:44;;;;;;;17.40;9.98;;;11.40;88.00;;;;;;5044124;28;20446;-46
2023/06/08 00:04:12;;;;;;;13.50;7.68;;;11.50;88.20;;;;;;5050430;28;20032;-47
2023/06/08 00:06:40;;;;;;;14.60;7.93;;;11.40;88.00;;;;;;5043452;28;20079;-46
2023/06/08 00:09:08;;;;;;;14.73;8.18;;;11.40;88.10;;;;;;5032059;28;20045;-46
2023/06/08 00:11:35;;;;;;;19.58;8.20;;;11.40;88.20;;;;;;5031550;28;20040;-48
2023/06/08 00:14:01;;;;;;;15.02;8.38;;;11.40;88.30;;;;;;5031223;28;20463;-48
2023/06/08 00:16:28;;;;;;;19.42;8.05;;;11.40;88.40;;;;;;5019484;28;20030;-46
2023/06/08 00:18:56;;;;;;;13.18;7.80;;;11.40;88.50;;;;;;5032074;28;20037;-47
2023/06/08 00:21:29;;;;;;;21.55;9.25;;;11.40;88.50;;;;;;5031631;28;20110;-46
2023/06/08 00:23:57;;;;;;;19.75;10.80;;;11.40;88.20;;;;;;5013506;28;20780;-48
2023/06/08 00:26:26;;;;;;;17.42;11.52;;;11.40;88.10;;;;;;5026952;28;20034;-46
2023/06/08 00:28:54;;;;;;;22.52;13.27;;;11.40;88.30;;;;;;5033488;28;20108;-47
2023/06/08 00:31:23;;;;;;;17.55;9.05;;;11.50;88.20;;;;;;5043663;28;20509;-46
2023/06/08 00:33:50;;;;;;;15.90;8.73;;;11.40;88.10;;;;;;5056135;28;20036;-46
2023/06/08 00:36:19;;;;;;;23.17;10.43;;;11.40;88.00;;;;;;5051556;28;20036;-46
2023/06/08 00:38:47;;;;;;;23.63;11.60;;;11.50;88.20;;;;;;5036231;28;20374;-48
2023/06/08 00:41:13;;;;;;;16.73;11.10;;;11.50;88.10;;;;;;5032294;28;20025;-46
2023/06/08 00:43:44;;;;;;;18.33;10.35;;;11.50;88.00;;;;;;5016025;28;20022;-47
2023/06/08 00:46:12;;;;;;;17.45;8.60;;;11.60;88.10;;;;;;5051229;28;20110;-45
2023/06/08 00:48:40;;;;;;;14.55;7.90;;;11.50;87.70;;;;;;5055595;28;20048;-49
2023/06/08 00:51:10;;;;;;;17.17;7.97;;;11.50;87.50;;;;;;5055537;28;20094;-47
2023/06/08 00:53:41;;;;;;;15.60;7.93;;;11.50;87.60;;;;;;5053124;28;20484;-45
2023/06/08 00:56:08;;;;;;;17.85;8.00;;;11.50;87.40;;;;;;5046804;28;20362;-46
2023/06/08 00:58:37;;;;;;;11.43;6.10;;;11.40;87.20;;;;;;5054153;28;20029;-48
2023/06/08 01:01:04;;;;;;;14.85;7.35;;;11.40;87.50;;;;;;5045711;28;20045;-46
2023/06/08 01:03:35;;;;;;;16.35;7.50;;;11.40;87.70;;;;;;5035474;28;20030;-46
2023/06/08 01:06:07;;;;;;;14.40;7.60;;;11.40;87.60;;;;;;5048034;28;20030;-46
2023/06/08 01:09:04;;;;;;;13.38;7.57;;;11.40;87.40;;;;;;5042610;28;20458;-45
2023/06/08 01:11:53;;;;;;;16.08;8.68;;;11.40;87.30;;;;;;5034698;28;20049;-46
2023/06/08 01:14:35;;;;;;;12.93;7.15;;;11.40;87.30;;;;;;5035460;28;20033;-46
2023/06/08 01:17:08;;;;;;;15.77;8.43;;;11.40;87.30;;;;;;5048292;28;20033;-47
2023/06/08 01:19:57;;;;;;;12.23;7.05;;;11.50;87.30;;;;;;5054126;28;20063;-46
2023/06/08 01:23:07;;;;;;;17.33;8.13;;;11.40;87.20;;;;;;5050624;28;20108;-47
2023/06/08 01:25:38;;;;;;;24.35;8.57;;;11.50;87.40;;;;;;5023978;28;20034;-46
2023/06/08 01:28:15;;;;;;;13.35;8.43;;;11.40;87.30;;;;;;5039129;28;20109;-48
2023/06/08 01:30:48;;;;;;;10.98;7.25;;;11.40;87.20;;;;;;5048362;28;20040;-46
2023/06/08 01:33:39;;;;;;;15.02;9.32;;;11.40;87.40;;;;;;5033995;28;20092;-46
2023/06/08 01:36:46;;;;;;;18.58;9.05;;;11.50;87.30;;;;;;5034737;28;20053;-44
2023/06/08 01:39:44;;;;;;;13.93;8.48;;;11.40;87.50;;;;;;5033496;28;20044;-46
2023/06/08 01:42:15;;;;;;;15.80;7.60;;;11.40;87.50;;;;;;5049831;28;20045;-45
2023/06/08 01:44:55;;;;;;;12.88;6.63;;;11.40;87.60;;;;;;5035632;28;20116;-46
2023/06/08 01:47:31;;;;;;;13.20;7.65;;;11.40;87.80;;;;;;5050218;28;20320;-45
2023/06/08 01:50:00;;;;;;;15.93;8.63;;;11.50;87.70;;;;;;5054367;28;20044;-46
2023/06/08 01:52:29;;;;;;;20.27;8.77;;;11.50;87.80;;;;;;5052342;28;20363;-46
2023/06/08 01:54:56;;;;;;;14.00;8.45;;;11.40;87.70;;;;;;5037253;28;20100;-46
2023/06/08 01:57:22;;;;;;;13.93;7.28;;;11.50;87.90;;;;;;5028721;28;20441;-47
2023/06/08 01:59:49;;;;;;;13.00;6.85;;;11.50;87.50;;;;;;5034131;28;20108;-45
2023/06/08 02:02:18;;;;;;;16.83;7.95;;;11.50;87.50;;;;;;5033199;28;20064;-47
2023/06/08 02:04:45;;;;;;;17.55;7.72;;;11.50;87.30;;;;;;5034219;28;20035;-47
2023/06/08 02:07:12;;;;;;;17.40;8.35;;;11.50;87.50;;;;;;5033315;28;20028;-46
2023/06/08 02:09:38;;;;;;;20.25;8.93;;;11.50;87.30;;;;;;5032532;28;20046;-46
2023/06/08 02:12:07;;;;;;;16.65;8.13;;;11.40;87.20;;;;;;5048015;28;20032;-48
2023/06/08 02:14:34;;;;;;;15.60;8.80;;;11.40;87.40;;;;;;5054238;28;20029;-46
2023/06/08 02:17:03;;;;;;;13.05;6.22;;;11.40;87.50;;;;;;5029491;28;20048;-46
2023/06/08 02:19:31;;;;;;;14.55;7.70;;;11.40;87.80;;;;;;5014540;28;20072;-47
2023/06/08 02:21:59;;;;;;;16.73;8.30;;;11.40;87.70;;;;;;5043152;28;20056;-48
2023/06/08 02:24:26;;;;;;;15.82;8.02;;;11.40;87.70;;;;;;5044158;28;20280;-47
2023/06/08 02:26:54;;;;;;;16.83;7.72;;;11.40;87.60;;;;;;5034154;28;20026;-46
2023/06/08 02:29:23;;;;;;;12.98;7.03;;;11.40;87.40;;;;;;5033850;28;20095;-48
2023/06/08 02:31:49;;;;;;;14.65;6.60;;;11.40;87.70;;;;;;5045386;28;20362;-46
2023/06/08 02:34:15;;;;;;;20.15;9.25;;;11.40;87.60;;;;;;5053040;28;20033;-46
2023/06/08 02:36:47;;;;;;;13.70;7.00;;;11.40;87.80;;;;;;5053832;28;20024;-45
2023/06/08 02:39:15;;;;;;;15.27;7.18;;;11.40;88.00;;;;;;5045245;28;20095;-47
2023/06/08 02:41:43;;;;;;;14.55;6.07;;;11.40;88.10;;;;;;5039137;28;20033;-45
2023/06/08 02:44:09;;;;;;;12.27;6.95;;;11.40;88.10;;;;;;5041668;28;20032;-46
2023/06/08 02:46:36;;;;;;;16.00;8.90;;;11.40;87.90;;;;;;5049790;28;20042;-47
2023/06/08 02:49:03;;;;;;;13.23;7.00;;;11.40;88.10;;;;;;5052329;28;20473;-46
2023/06/08 02:51:30;;;;;;;9.05;5.88;;;11.40;87.80;;;;;;5040434;28;20037;-45
2023/06/08 02:53:55;;;;;;;14.65;6.55;;;11.40;87.50;;;;;;5032511;28;20036;-46
2023/06/08 02:56:21;;;;;;;13.63;7.07;;;11.50;87.60;;;;;;5033539;28;20045;-46
2023/06/08 02:58:48;;;;;;;16.17;7.43;;;11.50;87.50;;;;;;5033486;28;20083;-47
2023/06/08 03:01:25;;;;;;;14.57;8.73;;;11.50;87.60;;;;;;5031608;28;20033;-46
2023/06/08 03:03:52;;;;;;;15.45;7.60;;;11.50;87.50;;;;;;5032984;28;20538;-47
2023/06/08 03:06:19;;;;;;;16.08;6.72;;;11.50;87.50;;;;;;5032959;28;20030;-46
2023/06/08 03:08:53;;;;;;;13.25;6.80;;;11.50;87.40;;;;;;5031180;28;20499;-46
2023/06/08 03:11:22;;;;;;;23.70;7.63;;;11.50;87.40;;;;;;5030814;28;20033;-48
2023/06/08 03:13:49;;;;;;;17.40;7.22;;;11.50;87.30;;;;;;5051964;28;20044;-45
2023/06/08 03:16:16;;;;;;;15.32;7.78;;;11.50;87.30;;;;;;5042253;28;20363;-46
2023/06/08 03:18:44;;;;;;;10.23;6.90;;;11.60;87.30;;;;;;5032879;28;20025;-46
2023/06/08 03:21:12;;;;;;;16.95;8.13;;;11.60;87.10;;;;;;5038758;28;20358;-46
2023/06/08 03:23:39;;;;;;;10.45;6.20;;;11.60;87.10;;;;;;5053001;28;20025;-46
2023/06/08 03:26:06;;;;;;;12.20;7.40;;;11.50;86.90;;;;;;5032298;28;20030;-45
2023/06/08 03:28:33;;;;;;;16.00;8.75;;;11.50;87.00;;;;;;5033028;28;20025;-48
2023/06/08 03:30:59;;;;;;;16.13;7.88;;;11.50;86.80;;;;;;5031682;28;20059;-46
2023/06/08 03:33:27;;;;;;;14.65;7.57;;;11.50;87.00;;;;;;5034221;28;20025;-46
2023/06/08 03:35:54;;;;;;;18.85;11.40;;;11.50;87.00;;;;;;5051872;28;20059;-48
2023/06/08 03:38:21;;;;;;;17.85;8.75;;;11.50;87.10;;;;;;5052934;28;20044;-45
2023/06/08 03:40:47;;;;;;;14.98;9.55;;;11.50;87.10;;;;;;5040213;28;20104;-47
2023/06/08 03:43:13;;;;;;;24.70;11.90;;;11.50;87.50;;;;;;5052423;28;20040;-48
2023/06/08 03:45:40;;;;;;;16.15;8.93;;;11.50;87.50;;;;;;5050405;28;20021;-48
2023/06/08 03:48:07;;;;;;;19.73;11.60;;;11.50;87.50;;;;;;5052249;28;20033;-46
2023/06/08 03:50:33;;;;;;;13.00;9.77;;;11.50;87.60;;;;;;5050682;28;20033;-45
2023/06/08 03:53:02;;;;;;;14.88;8.48;;;11.50;87.80;;;;;;5052439;28;20029;-46
2023/06/08 03:55:28;;;;;;;17.10;6.53;;;11.50;88.00;;;;;;5045977;28;20112;-46
2023/06/08 03:57:55;;;;;;;18.20;7.75;;;11.50;87.70;;;;;;5050767;28;20108;-45
2023/06/08 04:00:22;;;;;;;14.98;5.90;;;11.50;87.50;;;;;;5041962;28;20041;-45
2023/06/08 04:02:51;;;;;;;15.25;9.55;;;11.50;87.60;;;;;;5045610;28;20096;-46
2023/06/08 04:05:18;;;;;;;14.67;8.43;;;11.50;87.60;;;;;;5054386;28;20048;-47
2023/06/08 04:07:43;;;;;;;21.27;9.65;;;11.50;87.50;;;;;;5053002;28;20349;-46
2023/06/08 04:10:15;;;;;;;15.25;9.80;;;11.60;87.80;;;;;;5048422;28;20046;-46
2023/06/08 04:12:43;;;;;;;14.52;8.60;;;11.60;87.90;;;;;;5036197;28;20072;-46
2023/06/08 04:15:12;;;;;;;14.90;8.02;;;11.60;87.80;;;;;;5034294;28;20443;-46
2023/06/08 04:17:43;;;;;;;13.55;7.18;;;11.60;87.80;;;;;;5052040;28;20083;-46
2023/06/08 04:20:11;;;;;;;14.68;7.70;;;11.60;87.90;;;;;;5056245;28;20048;-46
2023/06/08 04:22:40;;;;;;;19.77;7.43;;;11.70;87.80;;;;;;5055390;28;20040;-46
2023/06/08 04:25:06;;;;;;;13.85;7.75;;;11.70;87.80;;;;;;5037707;28;20056;-46
2023/06/08 04:27:34;;;;;;;16.00;6.82;;;11.70;87.90;;;;;;5036159;28;20454;-46
2023/06/08 04:30:02;;;;;;;12.82;6.68;;;11.70;87.80;;;;;;5034920;28;20061;-45
2023/06/08 04:32:29;;;;;;;13.18;7.28;;;11.70;87.70;;;;;;5035087;28;20407;-46
2023/06/08 04:34:56;;;;;;;13.38;6.28;;;11.60;87.50;;;;;;5035956;28;20351;-46
2023/06/08 04:37:23;;;;;;;17.05;6.07;;;11.60;87.40;;;;;;5055572;28;20060;-46
2023/06/08 04:39:51;;;;;;;13.48;5.68;;;11.50;87.50;;;;;;5043034;28;20120;-46
2023/06/08 04:42:17;;;;;;;13.27;7.32;;;11.50;87.60;;;;;;5050898;28;20025;-46
2023/06/08 04:44:45;;;;;;;9.50;5.88;;;11.60;87.30;;;;;;5052418;28;20043;-45
2023/06/08 04:47:14;;;;;;;14.55;5.80;;;11.50;87.40;;;;;;5042777;28;20028;-46
2023/06/08 04:49:41;;;;;;;22.23;7.07;;;11.60;87.60;;;;;;5053784;28;20400;-46
2023/06/08 04:52:13;;;;;;;13.55;7.60;;;11.70;87.50;;;;;;5054632;28;20063;-48
2023/06/08 04:54:41;;;;;;;13.48;7.53;;;11.60;87.60;;;;;;5047590;28;20041;-47
2023/06/08 04:57:09;;;;;;;17.75;7.63;;;11.70;87.60;;;;;;5035560;28;20026;-46
2023/06/08 04:59:40;;;;;;;13.85;6.30;;;11.80;87.40;;;;;;5035110;28;20033;-46
2023/06/08 05:02:22;;;;;;;16.35;7.55;;;11.80;87.00;;;;;;5034272;28;20060;-47
2023/06/08 05:04:49;;;;;;;15.57;6.63;;;11.90;87.00;;;;;;5033673;28;20105;-45
2023/06/08 05:07:15;;;;;;;15.57;6.57;;;11.90;86.30;;;;;;5035111;28;20018;-46
2023/06/08 05:09:42;;;;;;;14.73;6.22;;;11.90;86.60;;;;;;5035455;28;20152;-46
2023/06/08 05:12:10;;;;;;;10.93;5.97;;;12.00;85.90;;;;;;5050802;28;20076;-45
2023/06/08 05:14:38;;;;;;;12.35;6.50;;;12.00;85.60;;;;;;5037263;28;20037;-47
2023/06/08 05:17:05;;;;;;;16.83;6.05;;;12.00;85.70;;;;;;5049032;28;20033;-46
2023/06/08 05:19:32;;;;;;;14.02;5.50;;;12.10;86.00;;;;;;5054996;28;20112;-46
2023/06/08 05:21:59;;;;;;;14.05;6.82;;;12.20;86.00;;;;;;5050611;28;20052;-46
2023/06/08 05:24:26;;;;;;;15.35;5.75;;;12.20;86.10;;;;;;5033505;28;20729;-46
2023/06/08 05:26:51;;;;;;;10.75;5.53;;;12.30;85.50;;;;;;5034438;28;20613;-48
2023/06/08 05:29:19;;;;;;;17.52;6.95;;;12.40;85.40;;;;;;5036487;28;20052;-46
2023/06/08 05:31:49;;;;;;;17.03;7.40;;;12.40;85.10;;;;;;5038585;28;20502;-46
2023/06/08 05:34:15;;;;;;;19.90;7.75;;;12.50;85.20;;;;;;5015072;28;20460;-47
2023/06/08 05:36:42;;;;;;;14.27;6.85;;;12.60;84.80;;;;;;5016678;28;20030;-47
2023/06/08 05:39:09;;;;;;;17.50;6.13;;;12.60;84.50;;;;;;5052168;28;20075;-46
2023/06/08 05:41:36;;;;;;;14.07;6.15;;;12.60;84.30;;;;;;5035875;28;20041;-47
2023/06/08 05:44:03;;;;;;;13.55;6.22;;;12.60;84.40;;;;;;5033886;28;20040;-47
2023/06/08 05:46:31;;;;;;;13.23;6.43;;;12.80;84.30;;;;;;5034892;28;20033;-46
2023/06/08 05:48:57;;;;;;;21.35;8.30;;;12.90;84.40;;;;;;5032593;28;20029;-46
2023/06/08 05:51:24;;;;;;;14.38;6.35;;;12.90;83.70;;;;;;5034024;28;20033;-47
2023/06/08 05:53:52;;;;;;;11.70;6.03;;;13.10;83.90;;;;;;5033511;28;20106;-50
2023/06/08 05:56:19;;;;;;;14.38;5.55;;;13.10;83.40;;;;;;5033417;28;20104;-46
2023/06/08 05:58:46;;;;;;;16.67;6.30;;;13.20;83.40;;;;;;5034239;28;20383;-46
2023/06/08 06:01:12;;;;;;;14.77;6.40;;;13.20;83.00;;;;;;5032070;28;20037;-46
2023/06/08 06:03:40;;;;;;;13.75;5.78;;;13.20;82.60;;;;;;5046244;28;20025;-46
2023/06/08 06:06:06;;;;;;;16.88;6.32;;;13.30;83.00;;;;;;5054100;28;20032;-46
2023/06/08 06:08:33;;;;;;;19.17;6.55;;;13.40;82.50;;;;;;5052708;28;20358;-46
2023/06/08 06:11:00;;;;;;;18.17;7.22;;;13.40;82.10;;;;;;5047673;28;20350;-46
2023/06/08 06:13:27;;;;;;;14.02;5.93;;;13.40;82.50;;;;;;5051590;28;20039;-46
2023/06/08 06:15:53;;;;;;;17.65;6.07;;;13.50;82.30;;;;;;5049244;28;20029;-46
2023/06/08 06:18:20;;;;;;;17.08;6.20;;;13.70;82.10;;;;;;5053865;28;20096;-46
2023/06/08 06:20:47;;;;;;;12.48;5.15;;;13.90;81.40;;;;;;5053886;28;20043;-46
2023/06/08 06:23:15;;;;;;;14.52;5.32;;;13.90;80.70;;;;;;5048839;28;20056;-46
2023/06/08 06:25:41;;;;;;;16.27;5.07;;;14.00;80.00;;;;;;5037413;28;20104;-46
2023/06/08 06:28:07;;;;;;;18.48;5.10;;;14.00;80.50;;;;;;5036589;28;20031;-46
2023/06/08 06:30:33;;;;;;;15.32;5.88;;;14.00;80.60;;;;;;5048329;28;20034;-46
2023/06/08 06:33:00;;;;;;;15.15;6.53;;;14.00;81.00;;;;;;5015526;28;20057;-47
2023/06/08 06:35:28;;;;;;;15.18;6.35;;;13.80;80.30;;;;;;5013771;28;20049;-46
2023/06/08 06:37:56;;;;;;;16.00;6.78;;;13.80;80.60;;;;;;5029353;28;20052;-46
2023/06/08 06:40:23;;;;;;;16.27;6.55;;;13.90;81.00;;;;;;5015507;28;20030;-46
2023/06/08 06:42:49;;;;;;;15.70;6.15;;;14.00;80.60;;;;;;5033586;28;20029;-46
2023/06/08 06:45:15;;;;;;;16.55;6.22;;;14.10;80.00;;;;;;5033345;28;20588;-47
2023/06/08 06:47:50;;;;;;;24.17;6.50;;;14.10;80.20;;;;;;5033013;28;20029;-46
2023/06/08 06:50:17;;;;;;;13.02;4.85;;;14.30;80.40;;;;;;5029864;28;20030;-48
2023/06/08 06:52:46;;;;;;;11.27;5.10;;;14.40;80.40;;;;;;5032500;28;20032;-48
2023/06/08 06:55:14;;;;;;;14.23;5.10;;;14.50;79.30;;;;;;5029629;28;20479;-47
2023/06/08 06:57:41;;;;;;;11.88;5.82;;;14.50;79.10;;;;;;5032221;28;20446;-46
2023/06/08 07:00:10;;;;;;;20.40;7.13;;;14.50;79.50;;;;;;5032227;28;20033;-46
2023/06/08 07:02:40;;;;;;;15.98;6.25;;;14.40;79.50;;;;;;5031231;28;20053;-48
2023/06/08 07:05:10;;;;;;;18.73;6.15;;;14.40;80.00;;;;;;5032566;28;20060;-47
2023/06/08 07:07:40;;;;;;;13.77;4.90;;;14.40;79.70;;;;;;5030779;28;20468;-51
2023/06/08 07:10:09;;;;;;;16.85;5.55;;;14.30;79.30;;;;;;5032792;28;20037;-46
2023/06/08 07:12:37;;;;;;;13.25;5.30;;;14.40;78.90;;;;;;5033161;28;20033;-46
2023/06/08 07:15:03;;;;;;;14.30;5.35;;;14.40;79.20;;;;;;5029973;28;20029;-48
2023/06/08 07:17:30;;;;;;;15.27;6.30;;;14.50;78.40;;;;;;5032552;28;20060;-47
2023/06/08 07:19:58;;;;;;;14.13;5.05;;;14.60;78.50;;;;;;5032903;28;20337;-52
2023/06/08 07:22:25;;;;;;;15.60;5.75;;;14.60;79.00;;;;;;5032903;28;20044;-47
2023/06/08 07:24:51;;;;;;;15.85;5.60;;;14.90;79.00;;;;;;5031409;28;20033;-51
2023/06/08 07:27:16;;;;;;;15.13;5.53;;;15.10;78.30;;;;;;5032835;28;20045;-49
2023/06/08 07:29:44;;;;;;;14.38;5.57;;;15.30;77.70;;;;;;5031844;28;20367;-51
2023/06/08 07:32:12;;;;;;;12.23;6.10;;;15.40;77.00;;;;;;5032503;28;20030;-51
2023/06/08 07:34:38;;;;;;;16.95;5.50;;;15.40;76.70;;;;;;5032317;28;20414;-50
2023/06/08 07:37:06;;;;;;;13.98;4.82;;;15.40;76.50;;;;;;5031414;28;20116;-49
2023/06/08 07:39:34;;;;;;;17.17;6.15;;;15.60;76.60;;;;;;5036186;28;20025;-47
2023/06/08 07:42:02;;;;;;;15.85;5.30;;;15.60;75.30;;;;;;5036179;28;20021;-49
2023/06/08 07:44:30;;;;;;;12.35;6.15;;;15.70;75.60;;;;;;5030647;28;20038;-46
2023/06/08 07:46:57;;;;;;;12.38;5.97;;;15.90;74.60;;;;;;5034162;28;20033;-48
2023/06/08 07:49:28;;;;;;;12.25;5.00;;;15.90;74.60;;;;;;5036515;28;20025;-47
2023/06/08 07:51:56;;;;;;;14.15;5.80;;;15.80;74.40;;;;;;5037495;28;20651;-46
2023/06/08 07:54:24;;;;;;;14.80;5.85;;;15.70;74.90;;;;;;5035069;28;20346;-46
2023/06/08 07:56:52;;;;;;;9.50;4.85;;;15.60;75.60;;;;;;5036645;28;20034;-47
2023/06/08 07:59:19;;;;;;;11.43;4.95;;;15.60;75.30;;;;;;5036143;28;20026;-47
2023/06/08 08:01:45;;;;;;;9.50;5.43;;;16.00;75.30;;;;;;5035440;28;20025;-49
2023/06/08 08:04:12;;;;;;;16.80;4.80;;;16.20;73.30;;;;;;5033483;28;20112;-46
2023/06/08 08:06:40;;;;;;;14.93;5.30;;;15.90;74.50;;;;;;5033367;28;20018;-47
2023/06/08 08:09:07;;;;;;;14.80;6.28;;;15.80;74.70;;;;;;5036180;28;20434;-46
2023/06/08 08:11:35;;;;;;;9.15;5.68;;;15.60;75.80;;;;;;5036177;28;20343;-47
2023/06/08 08:14:02;;;;;;;15.65;6.47;;;15.60;75.60;;;;;;5035546;28;20033;-47
2023/06/08 08:16:29;;;;;;;13.02;5.68;;;15.50;76.20;;;;;;5035927;28;20358;-46
2023/06/08 08:18:55;;;;;;;14.32;5.60;;;15.50;77.00;;;;;;5035232;28;20025;-46
2023/06/08 08:21:25;;;;;;;20.65;6.53;;;15.60;76.10;;;;;;5035264;28;20032;-48
2023/06/08 08:23:53;;;;;;;15.18;5.65;;;15.80;76.60;;;;;;5035382;28;20096;-49
2023/06/08 08:26:19;;;;;;;15.38;5.25;;;15.70;76.50;;;;;;5031741;28;20032;-48
2023/06/08 08:28:46;;;;;;;18.33;5.03;;;15.60;76.20;;;;;;5031783;28;20033;-48
2023/06/08 08:31:22;;;;;;;15.48;6.00;;;15.50;75.60;;;;;;5033812;28;20026;-47
2023/06/08 08:33:49;;;;;;;13.43;4.93;;;15.60;76.70;;;;;;5034575;28;20087;-47
2023/06/08 08:36:21;;;;;;;12.77;4.50;;;15.80;75.80;;;;;;5035052;28;20096;-50
2023/06/08 08:38:49;;;;;;;13.02;4.65;;;16.40;76.20;;;;;;5035574;28;20033;-47
2023/06/08 08:41:19;;;;;;;13.00;5.90;;;16.90;72.10;;;;;;5034934;28;20474;-47
2023/06/08 08:44:07;;;;;;;9.93;4.97;;;16.90;72.90;;;;;;5034317;28;20021;-48
2023/06/08 08:46:34;;;;;;;17.75;5.07;;;17.10;73.00;;;;;;5034267;28;20048;-46
2023/06/08 08:49:04;;;;;;;14.93;6.18;;;17.80;72.10;;;;;;5035600;28;20040;-50
2023/06/08 08:51:43;;;;;;;13.90;4.93;;;17.80;70.20;;;;;;5035448;28;20025;-49
2023/06/08 08:54:15;;;;;;;15.07;5.93;;;18.20;69.10;;;;;;5035338;28;20308;-48
2023/06/08 08:56:42;;;;;;;;;;;18.70;66.80;;;;;;5018218;28;20053;-49
2023/06/08 08:59:15;;;;;;;10.93;4.78;;;18.80;65.40;;;;;;5035115;28;20299;-47
2023/06/08 09:01:46;;;;;;;12.00;5.10;;;18.70;66.60;;;;;;5032570;28;20033;-47
2023/06/08 09:04:13;;;;;;;10.70;4.88;;;18.10;68.00;;;;;;5034814;28;20025;-49
2023/06/08 09:06:47;;;;;;;13.20;5.40;;;17.70;68.20;;;;;;5034954;28;20048;-46
2023/06/08 09:09:15;;;;;;;8.48;4.55;;;17.60;68.80;;;;;;5032416;28;20156;-48
2023/06/08 09:12:01;;;;;;;13.52;5.65;;;17.50;70.10;;;;;;5035350;28;20053;-48
2023/06/08 09:14:28;;;;;;;11.30;5.18;;;17.30;70.40;;;;;;5035076;28;20045;-51
2023/06/08 09:16:58;;;;;;;9.68;5.47;;;17.20;69.80;;;;;;5034423;28;20034;-47
2023/06/08 09:19:28;;;;;;;10.63;4.72;;;16.90;70.70;;;;;;5034004;28;20045;-47
2023/06/08 09:21:55;;;;;;;11.68;4.78;;;17.20;71.70;;;;;;5035655;28;20083;-46
2023/06/08 09:24:22;;;;;;;12.57;4.82;;;17.50;70.50;;;;;;5035417;28;20034;-46
2023/06/08 09:26:58;;;;;;;7.18;4.03;;;18.00;69.80;;;;;;5035197;28;20026;-47
2023/06/08 09:29:40;;;;;;;9.60;4.65;;;18.20;69.70;;;;;;5035173;28;20115;-50
2023/06/08 09:32:09;;;;;;;12.43;4.80;;;18.50;66.70;;;;;;5035124;28;20057;-48
2023/06/08 09:35:01;;;;;;;14.07;5.18;;;18.60;67.80;;;;;;5017717;28;20082;-47
2023/06/08 09:37:32;;;;;;;9.38;4.05;;;18.70;67.40;;;;;;5034601;28;20716;-48
2023/06/08 09:40:08;;;;;;;22.52;6.45;;;18.80;68.40;;;;;;5034741;28;20032;-48
2023/06/08 09:42:50;;;;;;;10.90;4.78;;;18.60;68.40;;;;;;5034734;28;20079;-47
2023/06/08 09:45:17;;;;;;;18.70;6.28;;;18.90;67.30;;;;;;5034757;28;20040;-47
2023/06/08 09:47:43;;;;;;;13.80;4.65;;;18.80;66.00;;;;;;5033837;28;20026;-49
2023/06/08 09:50:11;;;;;;;13.05;5.05;;;18.40;66.60;;;;;;5034762;28;20125;-48
2023/06/08 09:52:39;;;;;;;14.57;5.45;;;18.60;70.50;;;;;;5033817;28;20030;-49
2023/06/08 09:55:05;;;;;;;10.13;4.55;;;18.80;68.70;;;;;;5034255;28;20442;-47
2023/06/08 09:57:41;;;;;;;12.52;4.65;;;18.60;65.70;;;;;;5034949;28;20034;-49
2023/06/08 10:00:29;;;;;;;10.88;4.60;;;18.70;68.30;;;;;;5034330;28;20040;-48
2023/06/08 10:03:16;;;;;;;11.68;3.97;;;19.00;68.00;;;;;;5033277;28;20048;-48
2023/06/08 10:05:47;;;;;;;8.70;3.75;;;19.50;65.10;;;;;;5033878;28;20433;-47
2023/06/08 10:08:19;;;;;;;11.25;3.70;;;19.40;65.50;;;;;;5033725;28;20450;-48
2023/06/08 10:10:47;;;;;;;12.95;5.50;;;19.60;65.60;;;;;;5016494;28;20057;-48
2023/06/08 10:13:15;;;;;;;9.35;3.92;;;19.40;64.90;;;;;;5034216;28;20021;-51
2023/06/08 10:15:42;;;;;;;10.07;4.18;;;19.40;66.70;;;;;;5033101;28;20459;-47
2023/06/08 10:18:08;;;;;;;11.20;4.45;;;19.20;66.90;;;;;;5033284;28;20088;-49
2023/06/08 10:20:36;;;;;;;10.65;3.75;;;19.40;65.70;;;;;;5034034;28;20022;-50
2023/06/08 10:23:05;;;;;;;10.90;3.88;;;19.70;63.90;;;;;;5034240;28;20029;-47
2023/06/08 10:25:33;;;;;;;;;;;19.20;65.90;;;;;;5034289;28;20063;-48
2023/06/08 10:28:08;;;;;;;9.88;4.18;;;19.40;67.80;;;;;;5033075;28;19924;-47
2023/06/08 10:30:52;;;;;;;10.27;4.03;;;19.70;65.50;;;;;;5033685;28;20022;-47
2023/06/08 10:33:25;;;;;;;14.18;4.22;;;19.40;63.70;;;;;;5033859;28;20071;-47
2023/06/08 10:36:10;;;;;;;9.15;4.65;;;19.20;66.40;;;;;;5033765;28;20025;-48
2023/06/08 10:39:00;;;;;;;12.35;3.90;;;19.20;66.50;;;;;;5033252;28;20474;-48
2023/06/08 10:41:52;;;;;;;11.17;3.97;;;19.30;66.80;;;;;;5033840;28;20025;-50
2023/06/08 10:44:41;;;;;;;12.40;3.72;;;19.20;66.80;;;;;;5033205;28;20086;-47
2023/06/08 10:47:09;;;;;;;12.03;4.17;;;19.40;65.70;;;;;;5033414;28;20022;-49
2023/06/08 10:49:40;;;;;;;8.10;3.45;;;19.60;66.70;;;;;;5033682;28;20267;-48
2023/06/08 10:52:13;;;;;;;8.23;4.20;;;19.40;65.90;;;;;;5033445;28;20313;-50
2023/06/08 10:55:16;;;;;;;17.42;4.65;;;19.60;67.30;;;;;;5031626;28;20419;-48
2023/06/08 10:58:20;;;;;;;14.75;4.15;;;19.90;65.90;;;;;;5032855;28;20033;-49
2023/06/08 11:01:11;;;;;;;9.25;3.45;;;19.80;66.00;;;;;;5032954;28;20056;-48
2023/06/08 11:03:46;;;;;;;11.65;3.75;;;19.70;64.70;;;;;;5032863;28;20096;-47
2023/06/08 11:06:17;;;;;;;10.63;4.20;;;19.60;68.00;;;;;;5032203;28;20096;-48
2023/06/08 11:08:56;;;;;;;13.27;4.40;;;19.70;64.10;;;;;;5032862;28;20470;-48
2023/06/08 11:11:25;;;;;;;14.85;4.13;;;19.70;64.60;;;;;;5031727;28;20029;-48
2023/06/08 11:13:52;;;;;;;8.52;3.53;;;19.70;66.30;;;;;;5032510;28;20091;-48
2023/06/08 11:16:20;;;;;;;8.40;3.50;;;19.70;63.90;;;;;;5032963;28;20107;-47
2023/06/08 11:18:47;;;;;;;8.88;3.65;;;19.80;64.00;;;;;;5033313;28;20029;-47
2023/06/08 11:21:13;;;;;;;8.77;3.25;;;19.70;65.40;;;;;;5033045;28;20036;-48
2023/06/08 11:23:41;;;;;;;12.25;3.83;;;19.70;67.50;;;;;;5032966;28;20021;-50
2023/06/08 11:26:11;;;;;;;9.38;3.78;;;19.60;67.90;;;;;;5032113;28;20501;-51
2023/06/08 11:28:38;;;;;;;11.20;4.40;;;19.70;65.30;;;;;;5015408;28;20470;-48
2023/06/08 11:31:09;;;;;;;12.35;3.45;;;19.90;64.70;;;;;;5032939;28;20124;-50
2023/06/08 11:33:36;;;;;;;8.88;3.63;;;19.90;65.30;;;;;;5032914;28;20031;-48
2023/06/08 11:36:04;;;;;;;7.97;3.42;;;19.90;64.60;;;;;;5032351;28;20029;-51
2023/06/08 11:38:34;;;;;;;11.18;4.15;;;19.80;64.50;;;;;;5032608;28;20451;-51
2023/06/08 11:41:02;;;;;;;11.35;3.63;;;19.50;66.00;;;;;;5032623;28;20458;-48
2023/06/08 11:43:29;;;;;;;10.60;4.10;;;19.60;66.50;;;;;;5032768;28;20108;-47
2023/06/08 11:45:58;;;;;;;10.45;3.50;;;19.60;64.50;;;;;;5032713;28;20052;-49
2023/06/08 11:48:25;;;;;;;11.93;3.92;;;19.50;66.20;;;;;;5032247;28;20065;-48
2023/06/08 11:50:51;;;;;;;11.40;4.03;;;19.40;66.40;;;;;;5031748;28;20040;-51
2023/06/08 11:53:24;;;;;;;7.55;3.65;;;19.30;65.90;;;;;;5032431;28;20101;-48
2023/06/08 11:55:55;;;;;;;11.70;3.60;;;19.40;65.70;;;;;;5032431;28;20037;-50
2023/06/08 11:58:28;;;;;;;10.80;3.03;;;19.20;66.70;;;;;;5030575;28;20116;-48
2023/06/08 12:01:23;;;;;;;13.57;3.60;;;19.20;66.70;;;;;;5032227;28;20108;-48
2023/06/08 12:03:51;;;;;;;10.68;3.30;;;19.20;67.90;;;;;;5035467;28;20038;-48
2023/06/08 12:06:37;;;;;;;13.00;4.28;;;19.10;66.80;;;;;;5032736;28;20033;-48
2023/06/08 12:09:07;;;;;;;13.27;3.88;;;18.90;69.60;;;;;;5029962;28;20049;-48
2023/06/08 12:11:35;;;;;;;10.32;4.35;;;18.90;68.30;;;;;;5015321;28;20026;-48
2023/06/08 12:14:01;;;;;;;12.52;3.83;;;18.60;69.30;;;;;;5032538;28;20029;-47
2023/06/08 12:16:41;;;;;;;10.45;3.63;;;18.60;70.70;;;;;;5031511;28;20036;-50
2023/06/08 12:19:08;;;;;;;18.42;5.13;;;18.50;70.20;;;;;;5031908;28;20060;-48
2023/06/08 12:21:44;;;;;;;14.85;4.30;;;18.40;70.50;;;;;;5032145;28;20022;-48
2023/06/08 12:24:13;;;;;;;12.85;4.18;;;18.30;69.90;;;;;;5033239;28;20045;-48
2023/06/08 12:26:40;;;;;;;14.70;4.15;;;18.20;70.90;;;;;;5035288;28;20086;-47
2023/06/08 12:29:09;;;;;;;11.98;3.85;;;18.10;70.20;;;;;;5035512;28;20413;-51
2023/06/08 12:31:37;;;;;;;9.75;4.15;;;18.00;70.70;;;;;;5034944;28;20041;-49
2023/06/08 12:34:04;;;;;;;10.30;3.72;;;17.90;71.40;;;;;;5035920;28;20061;-46
2023/06/08 12:36:31;;;;;;;20.05;4.75;;;17.90;70.70;;;;;;5035724;28;20041;-46
2023/06/08 12:38:58;;;;;;;14.05;3.80;;;17.90;72.50;;;;;;5035374;28;20505;-48
2023/06/08 12:41:26;;;;;;;10.43;4.18;;;17.90;72.00;;;;;;5034586;28;20026;-49
2023/06/08 12:43:52;;;;;;;12.63;4.25;;;17.70;71.50;;;;;;5035745;28;20423;-47
2023/06/08 12:46:22;;;;;;;16.15;4.88;;;17.80;72.00;;;;;;5035448;28;20029;-50
2023/06/08 12:49:25;;;;;;;11.70;4.38;;;17.90;72.10;;;;;;5024421;28;20050;-50
2023/06/08 12:52:17;;;;;;;9.82;3.90;;;17.90;71.40;;;;;;5021636;28;20045;-50
2023/06/08 12:54:54;;;;;;;18.45;4.57;;;17.70;71.70;;;;;;5017323;28;20065;-51